This is the latest recevied weather packets stored in our database for station/object W4EDL-13. If no packets are shown the sender has not sent any weather packets the latest 10 day(s).
| Time | Temp. | Humidity | Pressure | Rain* | Wind** | Luminosity | Snow |
|---|---|---|---|---|---|---|---|
| 1777156223 | 24.44° C | 72% | 1000.9 hPa | - | - | - | - |
| 1777155641 | 25.56° C | 66% | 1000.5 hPa | - | - | - | - |
| 1777155623 | 25.56° C | 66% | 1000.5 hPa | - | - | - | - |
| 1777155041 | 25.56° C | 63% | 1000.2 hPa | - | - | - | - |
| 1777155022 | 25.56° C | 63% | 1000.2 hPa | - | - | - | - |
| 1777154440 | 26.11° C | 62% | 1000.2 hPa | - | - | - | - |
| 1777154421 | 26.11° C | 62% | 1000.2 hPa | - | - | - | - |
| 1777153840 | 26.67° C | 60% | 1000.2 hPa | - | - | - | - |
| 1777153821 | 27.22° C | 60% | 1000.2 hPa | - | - | - | - |
| 1777153239 | 27.22° C | 59% | 1000.5 hPa | - | - | - | - |
| 1777153220 | 27.22° C | 60% | 1000.5 hPa | - | - | - | - |
| 1777152639 | 26.67° C | 61% | 1000.5 hPa | - | - | - | - |
| 1777152620 | 26.67° C | 61% | 1000.5 hPa | - | - | - | - |
| 1777152038 | 27.22° C | 60% | 1000.2 hPa | - | - | - | - |
| 1777152019 | 27.22° C | 60% | 1000.2 hPa | - | - | - | - |
| 1777151438 | 27.78° C | 60% | 1000.2 hPa | - | - | - | - |
| 1777151418 | 27.78° C | 60% | 1000.2 hPa | - | - | - | - |
| 1777150245 | 27.78° C | 61% | 1000.5 hPa | - | - | - | - |
| 1777150222 | 27.78° C | 61% | 1000.5 hPa | - | - | - | - |
| 1777149644 | 27.22° C | 61% | 1000.9 hPa | - | - | - | - |
| 1777149622 | 27.22° C | 60% | 1000.9 hPa | - | - | - | - |
| 1777149044 | 28.33° C | 55% | 1000.9 hPa | - | - | - | - |
| 1777149021 | 28.33° C | 55% | 1000.9 hPa | - | - | - | - |
| 1777148443 | 28.33° C | 50% | 1000.9 hPa | - | - | - | - |
| 1777148420 | 28.33° C | 50% | 1000.9 hPa | - | - | - | - |
* Rain since midnight (hover to see other rain measurements)
** Current wind speed in m/s (hover to see current wind gust speed)